Time;durP1;ratioP1;P1;durP2;ratioP2;P2;SDS_P1;SDS_P2;PMS_P1;PMS_P2;Temp;Humidity;BMP_temperature;BMP_pressure;BME280_temperature;BME280_humidity;BME280_pressure;Samples;Min_cycle;Max_cycle;Signal;HPM_P1;HPM_P2
2022/06/09 08:20:13;;;;;;;0.87;0.50;;;;;;;;;;6253800;22;20329;-86
2022/06/09 08:22:43;;;;;;;0.68;0.68;;;;;;;;;;6308332;22;20697;-88
2022/06/09 08:25:17;;;;;;;0.40;0.40;;;;;;;;;;6277036;22;20003;-85
2022/06/09 08:27:42;;;;;;;2.92;0.82;;;;;;;;;;6277147;22;20007;-83
2022/06/09 08:30:10;;;;;;;0.77;0.50;;;;;;;;;;6277255;22;20004;-83
2022/06/09 08:32:37;;;;;;;0.35;0.30;;;;;;;;;;6277204;22;19996;-82
2022/06/09 08:35:04;;;;;;;13.27;1.85;;;;;;;;;;6276690;22;20004;-84
2022/06/09 08:37:29;;;;;;;28.35;2.80;;;;;;;;;;6277253;22;20509;-85
2022/06/09 08:39:55;;;;;;;0.73;0.50;;;;;;;;;;6277345;22;20039;-87
2022/06/09 08:42:26;;;;;;;0.90;0.60;;;;;;;;;;6249883;22;20039;-85
2022/06/09 08:44:58;;;;;;;2.55;0.57;;;;;;;;;;6249871;22;20010;-84
2022/06/09 08:47:38;;;;;;;4.15;0.70;;;;;;;;;;6276934;22;20004;-79
2022/06/09 08:50:30;;;;;;;0.63;0.50;;;;;;;;;;6277163;22;20449;-80
2022/06/09 08:53:09;;;;;;;0.50;0.40;;;;;;;;;;6193098;22;20011;-85
2022/06/09 08:55:43;;;;;;;1.20;0.30;;;;;;;;;;6276883;22;20000;-84
2022/06/09 08:58:11;;;;;;;0.77;0.40;;;;;;;;;;6276996;22;20323;-87
2022/06/09 09:00:40;;;;;;;0.75;0.35;;;;;;;;;;6276743;22;20003;-82
2022/06/09 09:03:15;;;;;;;0.63;0.30;;;;;;;;;;6277112;22;20026;-79
2022/06/09 09:05:51;;;;;;;1.00;0.43;;;;;;;;;;6276769;22;20083;-82
2022/06/09 09:08:16;;;;;;;2.28;0.60;;;;;;;;;;6277041;22;20027;-82
2022/06/09 09:11:17;;;;;;;1.05;0.20;;;;;;;;;;6276961;22;20412;-82
2022/06/09 09:14:05;;;;;;;0.35;0.35;;;;;;;;;;6196401;22;20084;-81
2022/06/09 09:16:46;;;;;;;0.30;0.30;;;;;;;;;;6276857;22;20015;-82
2022/06/09 09:19:34;;;;;;;1.00;0.40;;;;;;;;;;6276946;22;20012;-82
2022/06/09 09:22:16;;;;;;;1.27;0.30;;;;;;;;;;6249687;22;20085;-84
2022/06/09 09:25:05;;;;;;;0.98;0.50;;;;;;;;;;6249860;22;20018;-82
2022/06/09 09:28:05;;;;;;;0.50;0.45;;;;;;;;;;6277160;22;20014;-83
2022/06/09 09:30:41;;;;;;;0.30;0.30;;;;;;;;;;6276818;22;20015;-83
2022/06/09 09:33:16;;;;;;;1.25;0.40;;;;;;;;;;6276855;22;20010;-82
2022/06/09 09:35:43;;;;;;;0.40;0.40;;;;;;;;;;6276951;22;20381;-82
2022/06/09 09:38:14;;;;;;;1.05;0.50;;;;;;;;;;6250233;22;20065;-82
2022/06/09 09:40:47;;;;;;;0.60;0.50;;;;;;;;;;6276741;22;20023;-82
2022/06/09 09:43:17;;;;;;;0.50;0.50;;;;;;;;;;6276943;22;20045;-87
2022/06/09 09:45:44;;;;;;;0.88;0.50;;;;;;;;;;6249739;22;20339;-88
2022/06/09 09:48:21;;;;;;;0.50;0.32;;;;;;;;;;6278207;22;20010;-82
2022/06/09 09:50:58;;;;;;;1.83;0.50;;;;;;;;;;6278567;22;20362;-80
2022/06/09 09:53:31;;;;;;;1.65;0.50;;;;;;;;;;6278509;22;20004;-82
2022/06/09 09:56:17;;;;;;;0.73;0.55;;;;;;;;;;6278476;22;20004;-78
2022/06/09 09:58:49;;;;;;;0.75;0.32;;;;;;;;;;6278262;22;20004;-78
2022/06/09 10:01:14;;;;;;;0.65;0.50;;;;;;;;;;6278925;22;20000;-78
2022/06/09 10:09:43;;;;;;;0.43;0.43;;;;;;;;;;6278560;22;20457;-77
2022/06/09 10:12:11;;;;;;;1.20;0.47;;;;;;;;;;6278493;22;20004;-76
2022/06/09 10:14:48;;;;;;;1.20;0.43;;;;;;;;;;6251124;22;20004;-77
2022/06/09 10:17:28;;;;;;;0.55;0.50;;;;;;;;;;6278107;22;20000;-79
2022/06/09 10:20:07;;;;;;;1.55;0.50;;;;;;;;;;6250522;22;20047;-76
2022/06/09 10:22:36;;;;;;;1.25;0.90;;;;;;;;;;6278552;22;20003;-77
2022/06/09 10:25:16;;;;;;;1.48;0.90;;;;;;;;;;6277775;22;20015;-76
2022/06/09 10:27:49;;;;;;;0.93;0.70;;;;;;;;;;6278096;22;20011;-76
2022/06/09 10:30:22;;;;;;;1.38;0.75;;;;;;;;;;6278140;22;20489;-75
2022/06/09 10:33:00;;;;;;;3.95;3.25;;;;;;;;;;6252310;22;20414;-76
2022/06/09 10:35:46;;;;;;;1.15;0.98;;;;;;;;;;6278030;22;20004;-76
2022/06/09 10:38:31;;;;;;;1.75;0.85;;;;;;;;;;6278314;22;20008;-76
2022/06/09 10:40:59;;;;;;;0.50;0.50;;;;;;;;;;6278095;22;20057;-76
2022/06/09 10:43:48;;;;;;;0.90;0.90;;;;;;;;;;6277681;22;20070;-77
2022/06/09 10:46:34;;;;;;;2.35;0.80;;;;;;;;;;6277517;22;20011;-76
2022/06/09 10:55:19;;;;;;;0.65;0.50;;;;;;;;;;6277914;22;20449;-75
2022/06/09 10:58:07;;;;;;;2.23;0.60;;;;;;;;;;6277843;22;20050;-75
2022/06/09 11:00:46;;;;;;;1.20;0.40;;;;;;;;;;6250570;22;20094;-75
2022/06/09 11:03:16;;;;;;;0.82;0.77;;;;;;;;;;6277965;22;20098;-75
2022/06/09 11:06:19;;;;;;;0.40;0.40;;;;;;;;;;6277749;22;20004;-75
2022/06/09 11:08:59;;;;;;;1.63;0.47;;;;;;;;;;6277523;22;20015;-75
2022/06/09 11:12:13;;;;;;;2.05;0.70;;;;;;;;;;6277577;22;20431;-75
2022/06/09 11:15:14;;;;;;;0.52;0.50;;;;;;;;;;6124869;23;20061;-75
2022/06/09 11:18:00;;;;;;;2.15;0.90;;;;;;;;;;6009693;23;20019;-75
2022/06/09 11:20:47;;;;;;;0.93;0.70;;;;;;;;;;6256751;22;20011;-75
2022/06/09 11:23:35;;;;;;;0.90;0.75;;;;;;;;;;6277617;22;20004;-75
2022/06/09 11:26:13;;;;;;;1.50;0.60;;;;;;;;;;6257306;22;20008;-76
2022/06/09 11:29:43;;;;;;;0.30;0.30;;;;;;;;;;6277482;22;20007;-75
2022/06/09 11:32:44;;;;;;;1.83;1.58;;;;;;;;;;6171969;22;20129;-76
2022/06/09 11:35:25;;;;;;;1.80;1.48;;;;;;;;;;6230253;22;20367;-76
2022/06/09 11:38:18;;;;;;;1.02;0.80;;;;;;;;;;6277486;22;20000;-76
2022/06/09 11:41:04;;;;;;;2.33;2.13;;;;;;;;;;6277503;22;20007;-76
2022/06/09 11:43:38;;;;;;;0.70;0.68;;;;;;;;;;6277503;22;20031;-76
2022/06/09 11:46:13;;;;;;;0.80;0.50;;;;;;;;;;6277245;22;20030;-76
2022/06/09 16:55:31;;;;;;;0.57;0.40;;;;;;;;;;6272496;22;20042;-79
2022/06/09 16:57:57;;;;;;;8.38;0.95;;;;;;;;;;6309280;22;20019;-79
2022/06/09 17:00:26;;;;;;;7.20;1.58;;;;;;;;;;6310160;22;20011;-79
2022/06/09 17:02:52;;;;;;;0.32;0.32;;;;;;;;;;6297644;22;20004;-79
2022/06/09 17:05:19;;;;;;;0.55;0.55;;;;;;;;;;6278779;22;20004;-79
2022/06/09 17:07:48;;;;;;;0.77;0.20;;;;;;;;;;6251945;22;20019;-78
2022/06/09 17:10:22;;;;;;;;;;;;;;;;;;6279767;22;20004;-79
2022/06/09 17:12:48;;;;;;;0.30;0.30;;;;;;;;;;6278942;22;19946;-87
2022/06/09 17:15:15;;;;;;;2.15;0.30;;;;;;;;;;6278336;22;20003;-82
2022/06/09 17:22:51;;;;;;;4.00;0.60;;;;;;;;;;6270365;22;20036;-82
2022/06/09 17:25:17;;;;;;;0.40;0.30;;;;;;;;;;6277068;22;20004;-81
2022/06/09 17:27:42;;;;;;;0.68;0.50;;;;;;;;;;6278713;22;20318;-84
2022/06/09 17:30:11;;;;;;;0.88;0.57;;;;;;;;;;6260975;22;20004;-82
2022/06/09 17:32:37;;;;;;;0.70;0.32;;;;;;;;;;6247959;23;20027;-83
2022/06/09 17:35:03;;;;;;;2.72;0.40;;;;;;;;;;6248012;23;20038;-81
2022/06/09 17:37:28;;;;;;;1.58;0.30;;;;;;;;;;6248048;23;20010;-80
2022/06/09 17:39:54;;;;;;;0.47;0.30;;;;;;;;;;6248111;22;20035;-80
2022/06/09 17:42:19;;;;;;;0.75;0.30;;;;;;;;;;6248094;23;20000;-79
2022/06/09 17:44:45;;;;;;;0.73;0.40;;;;;;;;;;6246323;23;20011;-80
2022/06/09 17:47:13;;;;;;;0.47;0.47;;;;;;;;;;6248272;23;20415;-80
2022/06/09 17:49:40;;;;;;;0.50;0.30;;;;;;;;;;6248014;22;20008;-82
2022/06/09 17:52:06;;;;;;;1.23;0.40;;;;;;;;;;6247878;23;20684;-81
2022/06/09 17:54:32;;;;;;;0.40;0.40;;;;;;;;;;6246239;23;20008;-80
2022/06/09 17:56:57;;;;;;;0.40;0.40;;;;;;;;;;6248064;23;20415;-81
2022/06/09 17:59:23;;;;;;;0.40;0.40;;;;;;;;;;6247513;22;20327;-80
2022/06/09 18:01:48;;;;;;;2.22;0.50;;;;;;;;;;6247707;23;20011;-78
2022/06/09 18:04:13;;;;;;;0.90;0.57;;;;;;;;;;6247849;23;20007;-82
2022/06/09 18:06:39;;;;;;;0.70;0.60;;;;;;;;;;6247886;23;20014;-79
2022/06/09 18:09:06;;;;;;;3.70;1.15;;;;;;;;;;6247014;22;20000;-78
2022/06/09 18:11:31;;;;;;;0.50;0.50;;;;;;;;;;6247821;23;20000;-80
2022/06/09 18:13:57;;;;;;;1.10;1.00;;;;;;;;;;6247867;23;20065;-81
2022/06/09 18:16:24;;;;;;;1.33;0.60;;;;;;;;;;6247826;23;20072;-81
2022/06/09 18:18:50;;;;;;;0.40;0.40;;;;;;;;;;6278358;22;20006;-82
2022/06/09 18:21:20;;;;;;;0.43;0.38;;;;;;;;;;6278763;22;20023;-80
2022/06/09 18:23:46;;;;;;;1.35;0.57;;;;;;;;;;6278186;22;20007;-86
2022/06/09 18:26:12;;;;;;;0.70;0.63;;;;;;;;;;6278332;22;20023;-78
2022/06/09 18:28:39;;;;;;;0.63;0.63;;;;;;;;;;6278234;22;20081;-78
2022/06/09 18:31:05;;;;;;;0.95;0.50;;;;;;;;;;6278152;22;20335;-79
2022/06/09 18:33:31;;;;;;;2.38;1.10;;;;;;;;;;6278224;22;20030;-78
2022/06/09 18:35:57;;;;;;;0.95;0.75;;;;;;;;;;6278240;22;20006;-77
2022/06/09 18:38:24;;;;;;;0.40;0.40;;;;;;;;;;6277001;22;20062;-78
2022/06/09 18:40:51;;;;;;;0.90;0.80;;;;;;;;;;6277735;22;19999;-79
2022/06/09 18:43:19;;;;;;;1.15;0.60;;;;;;;;;;6250589;22;20418;-78
2022/06/09 20:28:37;;;;;;;0.80;0.32;;;;;;;;;;6279973;22;20011;-77
2022/06/09 20:31:05;;;;;;;1.75;0.40;;;;;;;;;;6280487;22;20007;-77
2022/06/09 20:33:31;;;;;;;0.65;0.43;;;;;;;;;;6299832;22;20065;-77
2022/06/09 20:35:58;;;;;;;0.40;0.30;;;;;;;;;;6277065;22;20000;-77
2022/06/09 20:38:29;;;;;;;1.27;0.50;;;;;;;;;;6276974;22;20038;-77
2022/06/09 20:40:56;;;;;;;0.63;0.30;;;;;;;;;;6277021;22;20419;-75
2022/06/09 20:43:23;;;;;;;0.55;0.35;;;;;;;;;;6277404;22;20000;-76
2022/06/09 20:45:53;;;;;;;0.40;0.40;;;;;;;;;;6276950;22;20046;-76
2022/06/09 20:48:23;;;;;;;0.68;0.40;;;;;;;;;;6277313;22;20006;-77
2022/06/09 20:50:49;;;;;;;;;;;;;;;;;;6277540;22;20007;-76
2022/06/09 20:53:17;;;;;;;0.47;0.40;;;;;;;;;;6276789;22;20226;-76
2022/06/09 20:55:44;;;;;;;1.42;1.23;;;;;;;;;;6277359;22;20004;-77
2022/06/09 20:58:13;;;;;;;1.75;0.40;;;;;;;;;;6277317;22;20075;-76
2022/06/09 21:00:39;;;;;;;0.40;0.40;;;;;;;;;;6277141;22;20063;-76
2022/06/09 21:03:08;;;;;;;0.28;0.28;;;;;;;;;;6277078;22;20042;-76
2022/06/09 21:05:33;;;;;;;;;;;;;;;;;;6277491;22;20075;-76
2022/06/09 21:07:59;;;;;;;0.70;0.52;;;;;;;;;;6276958;22;19945;-77
2022/06/09 21:18:36;;;;;;;0.30;0.30;;;;;;;;;;6276513;22;20010;-77
2022/06/09 21:21:03;;;;;;;1.75;0.60;;;;;;;;;;6276851;22;20345;-78
2022/06/09 21:23:29;;;;;;;0.75;0.40;;;;;;;;;;6277127;22;19996;-77
2022/06/09 21:25:55;;;;;;;0.88;0.60;;;;;;;;;;6276997;22;20019;-77
2022/06/09 21:28:21;;;;;;;2.72;0.70;;;;;;;;;;6276708;22;20016;-77
2022/06/09 21:30:47;;;;;;;0.95;0.60;;;;;;;;;;6276684;22;20008;-77
2022/06/09 21:33:13;;;;;;;2.15;0.50;;;;;;;;;;6276640;22;20385;-77
2022/06/09 21:35:39;;;;;;;0.47;0.47;;;;;;;;;;6276992;22;20007;-77
2022/06/09 21:38:05;;;;;;;0.57;0.57;;;;;;;;;;6276962;22;20000;-78
2022/06/09 21:40:30;;;;;;;0.65;0.60;;;;;;;;;;6276825;22;20007;-77
2022/06/09 21:42:56;;;;;;;0.73;0.70;;;;;;;;;;6277177;22;20031;-77
2022/06/09 21:45:22;;;;;;;0.60;0.60;;;;;;;;;;6278624;22;20003;-77
2022/06/09 21:47:48;;;;;;;1.08;0.52;;;;;;;;;;6278500;22;20004;-77
2022/06/09 21:50:14;;;;;;;0.52;0.35;;;;;;;;;;6278830;22;20010;-78
2022/06/09 21:52:40;;;;;;;1.45;0.43;;;;;;;;;;6278581;22;20007;-78
2022/06/09 21:55:07;;;;;;;0.50;0.50;;;;;;;;;;6278243;22;20077;-78
2022/06/09 21:57:35;;;;;;;0.90;0.47;;;;;;;;;;6278523;22;20003;-78
2022/06/09 22:00:05;;;;;;;0.60;0.43;;;;;;;;;;6278468;22;20007;-78
2022/06/09 22:02:30;;;;;;;1.27;0.50;;;;;;;;;;6278305;22;20376;-77
2022/06/09 22:04:56;;;;;;;0.50;0.30;;;;;;;;;;6278593;22;19999;-78
2022/06/09 22:07:21;;;;;;;0.73;0.50;;;;;;;;;;6278371;22;20000;-78
2022/06/09 22:09:46;;;;;;;0.52;0.50;;;;;;;;;;6278646;22;20008;-77
2022/06/09 22:12:12;;;;;;;0.85;0.80;;;;;;;;;;6278445;22;20000;-76
2022/06/09 22:14:37;;;;;;;0.60;0.60;;;;;;;;;;6277568;22;19999;-78
2022/06/09 22:17:03;;;;;;;0.43;0.40;;;;;;;;;;6278082;22;20083;-78
2022/06/09 22:19:28;;;;;;;4.32;0.50;;;;;;;;;;6278231;22;20065;-78
2022/06/09 22:21:54;;;;;;;0.82;0.60;;;;;;;;;;6278525;22;20061;-79
2022/06/09 22:24:19;;;;;;;0.55;0.35;;;;;;;;;;6278165;22;20198;-77
2022/06/09 22:26:45;;;;;;;0.30;0.30;;;;;;;;;;6278207;22;20004;-78
2022/06/09 22:29:10;;;;;;;0.40;0.40;;;;;;;;;;6277999;22;20008;-77
2022/06/09 22:31:36;;;;;;;0.80;0.52;;;;;;;;;;6278293;22;20073;-77
2022/06/09 22:34:01;;;;;;;1.50;0.57;;;;;;;;;;6278120;22;20082;-77
2022/06/09 22:36:27;;;;;;;0.45;0.30;;;;;;;;;;6278551;22;20440;-77
2022/06/09 22:38:52;;;;;;;0.70;0.50;;;;;;;;;;6278290;22;20004;-76
2022/06/09 22:41:18;;;;;;;1.42;0.40;;;;;;;;;;6278009;22;20379;-77
2022/06/09 22:43:44;;;;;;;0.52;0.50;;;;;;;;;;6277981;22;20427;-77
2022/06/09 22:46:09;;;;;;;1.20;0.50;;;;;;;;;;6278103;22;20010;-77
2022/06/09 22:48:35;;;;;;;3.33;0.60;;;;;;;;;;6278357;22;20004;-77
2022/06/09 22:51:00;;;;;;;0.63;0.50;;;;;;;;;;6277976;22;20373;-78
2022/06/09 22:53:26;;;;;;;0.50;0.50;;;;;;;;;;6278124;22;20087;-76
2022/06/09 22:56:10;;;;;;;0.47;0.47;;;;;;;;;;6277698;22;20053;-77
2022/06/09 22:58:47;;;;;;;1.58;0.30;;;;;;;;;;6277791;22;20330;-77
2022/06/09 23:01:14;;;;;;;0.40;0.32;;;;;;;;;;6278006;22;20129;-77
2022/06/09 23:03:41;;;;;;;1.27;0.60;;;;;;;;;;6250824;22;20102;-76
2022/06/09 23:06:10;;;;;;;0.55;0.55;;;;;;;;;;6278128;22;19999;-75
2022/06/09 23:08:36;;;;;;;0.43;0.35;;;;;;;;;;6277935;22;20075;-75
2022/06/09 23:11:03;;;;;;;0.98;0.60;;;;;;;;;;6277982;22;20386;-75
2022/06/09 23:13:28;;;;;;;1.77;0.50;;;;;;;;;;6278174;22;20006;-78
2022/06/09 23:15:54;;;;;;;0.50;0.50;;;;;;;;;;6277909;22;20000;-76
2022/06/09 23:18:20;;;;;;;2.58;0.60;;;;;;;;;;6278046;22;20064;-76
2022/06/09 23:20:47;;;;;;;0.85;0.40;;;;;;;;;;6277743;22;20327;-76
2022/06/09 23:23:13;;;;;;;0.40;0.40;;;;;;;;;;6277795;22;20010;-76
2022/06/09 23:25:41;;;;;;;0.63;0.60;;;;;;;;;;6277902;22;20012;-76
2022/06/09 23:28:07;;;;;;;0.70;0.50;;;;;;;;;;6277576;22;20019;-77
2022/06/09 23:30:33;;;;;;;1.02;0.30;;;;;;;;;;6277933;22;20056;-76
2022/06/09 23:32:59;;;;;;;0.50;0.50;;;;;;;;;;6277804;22;20485;-77
2022/06/09 23:35:26;;;;;;;0.35;0.35;;;;;;;;;;6277755;22;20035;-78
2022/06/09 23:37:57;;;;;;;0.35;0.35;;;;;;;;;;6277623;22;20003;-78
2022/06/09 23:40:30;;;;;;;0.95;0.50;;;;;;;;;;6277902;22;20004;-78
2022/06/09 23:42:57;;;;;;;2.42;0.45;;;;;;;;;;6277351;22;19999;-78
2022/06/09 23:45:33;;;;;;;0.50;0.40;;;;;;;;;;6277612;22;20323;-78
2022/06/09 23:48:06;;;;;;;0.47;0.40;;;;;;;;;;6277536;22;20326;-78
2022/06/09 23:50:35;;;;;;;0.70;0.52;;;;;;;;;;6277554;22;20015;-77
2022/06/09 23:53:01;;;;;;;1.85;0.40;;;;;;;;;;6277610;22;20011;-78
2022/06/09 23:55:27;;;;;;;0.40;0.40;;;;;;;;;;6250134;22;20350;-78
2022/06/09 23:57:52;;;;;;;0.40;0.28;;;;;;;;;;6277698;22;20026;-78
